Terminal Aerodrome Forecast
Issued by NWS

Current Version | Previous Version | Text Only | Print | Product List | Glossary Off
Versions: 1 2 3 4 5 6 7 8 9 10 11 12 13 14 15 16 17

000
FTUS41 KPBZ 050523
TAFMGW
TAF
KMGW 050523Z 0506/0606 19007KT 5SM -RA BR OVC015
     FM050700 23007KT 5SM BR OVC008
     FM051200 26006KT P6SM OVC010
     FM051400 28005KT P6SM BKN020
     FM051700 29005KT P6SM BKN040
     FM060200 09003KT P6SM BKN200=

USA.gov is the U.S. government's official web portal to all federal, state and local government web resources and services.